Time;durP1;ratioP1;P1;durP2;ratioP2;P2;SDS_P1;SDS_P2;PMS_P1;PMS_P2;Temp;Humidity;BMP_temperature;BMP_pressure;BME280_temperature;BME280_humidity;BME280_pressure;Samples;Min_cycle;Max_cycle;Signal;HPM_P1;HPM_P2
2021/10/18 00:01:23;;;;;;;7.75;4.40;;;;;;;8.04;62.75;100597.75;4472580;31;32325;-83
2021/10/18 00:03:51;;;;;;;12.70;4.45;;;;;;;8.02;63.27;100609.19;4465098;31;34383;-82
2021/10/18 00:06:19;;;;;;;8.05;4.72;;;;;;;8.05;63.06;100609.16;4477673;31;33961;-82
2021/10/18 00:08:48;;;;;;;9.55;4.07;;;;;;;7.96;63.55;100605.78;4473365;31;34083;-82
2021/10/18 00:11:18;;;;;;;6.72;4.22;;;;;;;8.05;63.53;100611.78;4471363;31;33893;-82
2021/10/18 00:14:06;;;;;;;7.47;4.07;;;;;;;8.08;63.48;100607.31;4475915;31;34099;-82
2021/10/18 00:16:38;;;;;;;9.75;3.60;;;;;;;8.11;63.39;100601.12;4483965;31;33667;-82
2021/10/18 00:19:06;;;;;;;8.88;3.50;;;;;;;8.07;63.97;100612.59;4475868;31;32240;-82
2021/10/18 00:21:35;;;;;;;6.53;4.00;;;;;;;8.17;63.62;100611.53;4486027;31;34192;-82
2021/10/18 00:24:03;;;;;;;6.55;4.25;;;;;;;8.29;63.33;100606.00;4491544;31;33588;-82
2021/10/18 00:26:33;;;;;;;6.32;4.07;;;;;;;8.21;63.81;100605.28;4472281;32;32992;-81
2021/10/18 00:29:01;;;;;;;6.93;4.47;;;;;;;8.33;63.72;100599.78;4483105;31;33276;-83
2021/10/18 00:31:28;;;;;;;9.55;3.95;;;;;;;8.44;63.57;100595.16;4476493;31;33266;-83
2021/10/18 00:33:56;;;;;;;6.12;3.72;;;;;;;8.37;64.08;100600.63;4474908;31;33719;-84
2021/10/18 00:36:24;;;;;;;6.00;4.28;;;;;;;8.66;62.98;100595.56;4477948;31;32264;-83
2021/10/18 00:38:51;;;;;;;5.90;3.87;;;;;;;8.54;63.55;100597.59;4484413;31;33423;-83
2021/10/18 00:41:19;;;;;;;7.60;4.75;;;;;;;8.63;63.29;100592.13;4475283;31;33410;-84
2021/10/18 00:43:49;;;;;;;7.75;4.10;;;;;;;8.55;63.74;100597.56;4465471;31;32970;-83
2021/10/18 00:46:22;;;;;;;9.15;4.05;;;;;;;8.41;64.27;100600.50;4470784;32;34482;-83
2021/10/18 00:48:51;;;;;;;9.25;4.18;;;;;;;8.55;63.98;100599.34;4464936;31;34281;-84
2021/10/18 00:51:24;;;;;;;10.00;4.60;;;;;;;8.68;63.75;100600.78;4484071;31;34273;-85
2021/10/18 00:53:55;;;;;;;6.00;3.65;;;;;;;8.66;63.87;100605.22;4486844;31;34754;-84
2021/10/18 00:56:23;;;;;;;7.45;4.47;;;;;;;8.57;64.65;100600.16;4471191;31;33736;-84
2021/10/18 00:58:51;;;;;;;5.28;3.40;;;;;;;8.76;64.35;100598.84;4484613;31;34435;-84
2021/10/18 01:01:19;;;;;;;9.55;3.90;;;;;;;8.64;64.68;100593.84;4484232;31;33193;-85
2021/10/18 01:03:48;;;;;;;4.70;3.58;;;;;;;8.69;64.62;100599.91;4472481;31;33938;-84
2021/10/18 01:06:15;;;;;;;7.62;3.70;;;;;;;8.61;65.06;100599.19;4470603;31;33842;-83
2021/10/18 01:08:43;;;;;;;6.97;3.70;;;;;;;8.84;64.68;100589.00;4471691;31;34012;-83
2021/10/18 01:11:11;;;;;;;5.05;4.15;;;;;;;8.95;64.22;100589.59;4485387;31;34291;-83
2021/10/18 01:13:39;;;;;;;4.62;3.40;;;;;;;8.90;64.39;100593.25;4472164;31;32977;-83
2021/10/18 01:16:07;;;;;;;6.43;3.97;;;;;;;9.09;63.87;100591.03;4462373;31;33934;-82
2021/10/18 01:18:35;;;;;;;7.68;4.22;;;;;;;9.07;64.15;100595.44;4474752;31;33379;-82
2021/10/18 01:21:03;;;;;;;8.13;3.50;;;;;;;9.17;63.81;100594.34;4473689;31;32774;-82
2021/10/18 01:23:31;;;;;;;9.93;3.95;;;;;;;8.95;64.72;100594.84;4484172;31;34050;-82
2021/10/18 01:25:59;;;;;;;6.47;3.70;;;;;;;9.31;63.60;100594.00;4471003;31;33717;-82
2021/10/18 01:28:26;;;;;;;7.65;3.75;;;;;;;9.20;64.11;100591.59;4486310;31;34003;-83
2021/10/18 01:30:54;;;;;;;5.97;3.90;;;;;;;9.15;64.50;100590.84;4480146;31;33895;-82
2021/10/18 01:33:21;;;;;;;4.65;3.35;;;;;;;9.33;64.23;100587.75;4487848;31;33855;-81
2021/10/18 01:35:50;;;;;;;7.60;3.70;;;;;;;9.23;64.48;100589.75;4487074;31;34586;-82
2021/10/18 01:38:18;;;;;;;5.05;3.37;;;;;;;9.32;64.48;100598.34;4489265;31;33240;-82
2021/10/18 01:40:53;;;;;;;5.82;3.45;;;;;;;9.40;64.11;100591.97;4473140;31;33725;-81
2021/10/18 01:43:21;;;;;;;5.75;3.62;;;;;;;9.39;64.32;100586.72;4474207;32;32974;-83
2021/10/18 01:45:50;;;;;;;9.63;3.40;;;;;;;9.32;64.59;100593.94;4480511;31;32758;-84
2021/10/18 01:48:17;;;;;;;9.10;4.45;;;;;;;9.27;64.92;100594.97;4470008;31;32855;-84
2021/10/18 01:50:45;;;;;;;5.55;3.17;;;;;;;9.38;64.56;100588.50;4477941;31;33126;-83
2021/10/18 01:53:12;;;;;;;5.82;2.47;;;;;;;9.45;64.65;100590.09;4474050;31;33657;-83
2021/10/18 01:55:40;;;;;;;4.87;3.03;;;;;;;9.48;64.76;100587.34;4479788;31;32614;-82
2021/10/18 01:58:11;;;;;;;5.15;3.00;;;;;;;9.76;63.86;100586.59;4484779;31;33321;-83
2021/10/18 02:00:40;;;;;;;4.37;3.00;;;;;;;9.57;64.59;100588.00;4478327;31;33296;-83
2021/10/18 02:03:08;;;;;;;9.52;3.72;;;;;;;9.47;64.90;100585.63;4486032;31;33654;-83
2021/10/18 02:05:37;;;;;;;7.10;3.80;;;;;;;9.47;65.07;100572.44;4475391;31;34208;-84
2021/10/18 02:08:04;;;;;;;5.55;3.30;;;;;;;9.62;64.82;100571.16;4485852;31;32283;-83
2021/10/18 02:10:32;;;;;;;8.63;3.15;;;;;;;9.66;64.68;100577.22;4475890;31;34266;-84
2021/10/18 02:13:00;;;;;;;5.35;3.80;;;;;;;9.99;63.47;100571.00;4486989;31;34368;-83
2021/10/18 02:15:28;;;;;;;7.62;3.28;;;;;;;9.78;64.19;100574.25;4476880;31;33238;-85
2021/10/18 02:17:57;;;;;;;7.07;3.45;;;;;;;9.96;63.87;100567.56;4481002;31;32319;-84
2021/10/18 02:20:25;;;;;;;6.45;3.55;;;;;;;9.87;64.27;100563.41;4485244;31;33250;-84
2021/10/18 02:22:52;;;;;;;7.43;3.37;;;;;;;9.83;64.44;100577.62;4458597;32;32905;-83
2021/10/18 02:25:20;;;;;;;5.72;3.62;;;;;;;9.97;63.96;100572.81;4477929;31;32657;-83
2021/10/18 02:27:50;;;;;;;4.40;3.20;;;;;;;9.99;64.19;100571.00;4466407;31;34274;-84
2021/10/18 02:30:17;;;;;;;5.32;3.15;;;;;;;10.04;64.10;100572.63;4474773;32;33064;-84
2021/10/18 02:32:46;;;;;;;6.55;3.55;;;;;;;10.10;64.19;100570.66;4486496;31;34122;-84
2021/10/18 02:35:14;;;;;;;4.50;2.90;;;;;;;10.11;64.18;100576.81;4485202;31;33190;-84
2021/10/18 02:37:42;;;;;;;4.43;3.08;;;;;;;10.06;64.46;100579.56;4493891;31;33732;-84
2021/10/18 02:40:10;;;;;;;6.95;3.03;;;;;;;10.23;64.11;100579.09;4474797;31;34300;-83
2021/10/18 02:42:39;;;;;;;5.37;3.33;;;;;;;10.22;64.11;100577.38;4486831;31;33681;-84
2021/10/18 02:45:08;;;;;;;5.12;2.92;;;;;;;10.18;64.29;100578.38;4477463;31;33174;-84
2021/10/18 02:47:36;;;;;;;4.65;3.05;;;;;;;10.22;64.36;100580.00;4480901;31;32257;-84
2021/10/18 02:50:04;;;;;;;6.07;3.42;;;;;;;10.20;64.34;100581.81;4483943;31;33557;-84
2021/10/18 02:52:31;;;;;;;4.57;3.20;;;;;;;10.17;64.26;100579.28;4471439;32;33645;-85
2021/10/18 02:55:01;;;;;;;10.60;3.65;;;;;;;9.94;65.06;100582.59;4476611;31;32416;-84
2021/10/18 02:57:29;;;;;;;7.07;3.15;;;;;;;9.97;65.19;100572.81;4486613;31;33788;-84
2021/10/18 02:59:58;;;;;;;5.20;3.83;;;;;;;10.12;64.90;100586.47;4484403;31;34398;-84
2021/10/18 03:02:26;;;;;;;4.82;2.80;;;;;;;10.16;65.05;100574.91;4477890;31;34001;-84
2021/10/18 03:04:54;;;;;;;6.62;3.42;;;;;;;10.29;64.62;100568.38;4471632;31;35198;-83
2021/10/18 03:07:22;;;;;;;3.37;2.90;;;;;;;10.38;64.21;100581.31;4475649;31;32802;-84
2021/10/18 03:09:49;;;;;;;6.78;3.95;;;;;;;10.46;64.23;100576.66;4475860;32;32928;-83
2021/10/18 03:12:17;;;;;;;3.95;3.30;;;;;;;10.63;63.39;100569.97;4475851;31;33701;-83
2021/10/18 03:14:45;;;;;;;4.75;3.42;;;;;;;10.39;64.43;100582.16;4480120;31;32602;-83
2021/10/18 03:17:12;;;;;;;4.97;3.42;;;;;;;10.57;63.89;100572.81;4459217;31;33676;-84
2021/10/18 03:19:40;;;;;;;5.00;2.92;;;;;;;10.55;64.00;100575.50;4472220;31;33931;-84
2021/10/18 03:22:08;;;;;;;7.70;3.22;;;;;;;10.50;64.09;100580.94;4467779;31;33823;-84
2021/10/18 03:24:35;;;;;;;8.95;3.40;;;;;;;10.58;63.80;100585.09;4482953;31;33491;-84
2021/10/18 03:27:03;;;;;;;3.78;2.92;;;;;;;10.49;64.09;100588.88;4473250;32;33298;-83
2021/10/18 03:29:31;;;;;;;4.07;3.60;;;;;;;10.42;64.17;100590.88;4482545;31;33539;-84
2021/10/18 03:31:58;;;;;;;4.40;3.22;;;;;;;10.50;63.91;100595.91;4484161;31;33117;-83
2021/10/18 03:34:26;;;;;;;7.43;3.28;;;;;;;10.57;63.67;100593.94;4483371;31;34658;-83
2021/10/18 03:36:54;;;;;;;6.12;2.85;;;;;;;10.56;63.53;100590.44;4480704;31;33045;-83
2021/10/18 03:39:21;;;;;;;7.03;3.10;;;;;;;10.60;63.43;100591.22;4471783;31;34585;-82
2021/10/18 03:41:50;;;;;;;5.22;3.40;;;;;;;10.50;63.83;100588.00;4488094;31;33822;-83
2021/10/18 03:44:18;;;;;;;4.95;3.62;;;;;;;10.65;63.47;100594.56;4488470;31;34212;-83
2021/10/18 03:46:45;;;;;;;6.10;3.47;;;;;;;10.57;63.73;100592.16;4472233;31;32320;-83
2021/10/18 03:49:14;;;;;;;6.78;3.50;;;;;;;10.68;63.46;100597.09;4471928;31;32685;-83
2021/10/18 03:51:41;;;;;;;8.15;4.15;;;;;;;10.67;63.38;100598.03;4479217;31;33229;-83
2021/10/18 03:54:09;;;;;;;6.28;3.45;;;;;;;10.73;63.13;100600.50;4485304;31;33449;-83
2021/10/18 03:56:37;;;;;;;5.10;3.87;;;;;;;10.64;63.39;100599.00;4485652;31;32899;-83
2021/10/18 03:59:04;;;;;;;5.78;3.50;;;;;;;10.69;63.22;100602.34;4486476;31;33809;-84
2021/10/18 04:01:32;;;;;;;5.65;3.37;;;;;;;10.63;63.37;100599.03;4474610;31;33730;-84
2021/10/18 04:04:00;;;;;;;5.47;3.10;;;;;;;10.65;63.31;100602.50;4485623;31;34455;-83
2021/10/18 04:06:28;;;;;;;7.45;3.83;;;;;;;10.72;63.02;100601.38;4473034;31;33023;-83
2021/10/18 04:08:56;;;;;;;6.97;3.75;;;;;;;10.62;63.27;100594.66;4485865;31;34467;-82
2021/10/18 04:11:24;;;;;;;8.00;4.05;;;;;;;10.60;63.29;100602.66;4464949;31;33889;-83
2021/10/18 04:13:51;;;;;;;8.88;3.80;;;;;;;10.62;63.19;100597.31;4472410;31;33654;-83
2021/10/18 04:16:19;;;;;;;5.37;3.22;;;;;;;10.64;63.09;100600.78;4484117;31;33151;-84
2021/10/18 04:18:47;;;;;;;6.70;3.42;;;;;;;10.63;63.06;100593.75;4487852;31;33815;-83
2021/10/18 04:21:14;;;;;;;7.05;3.33;;;;;;;10.74;62.68;100599.56;4476570;31;33030;-83
2021/10/18 04:23:42;;;;;;;9.13;3.90;;;;;;;10.62;63.09;100600.81;4484602;31;33435;-83
2021/10/18 04:26:10;;;;;;;5.60;3.90;;;;;;;10.49;63.39;100602.97;4471709;31;33045;-83
2021/10/18 04:28:37;;;;;;;6.20;4.15;;;;;;;10.48;63.59;100603.88;4485248;31;33587;-83
2021/10/18 04:31:05;;;;;;;14.00;4.05;;;;;;;10.63;63.35;100606.94;4485603;31;34025;-84
2021/10/18 04:33:33;;;;;;;10.15;3.78;;;;;;;10.61;63.35;100611.44;4476521;31;33004;-83
2021/10/18 04:36:00;;;;;;;5.78;3.40;;;;;;;10.62;63.14;100607.88;4489805;31;33363;-83
2021/10/18 04:38:28;;;;;;;4.70;3.65;;;;;;;10.48;63.47;100603.88;4473806;31;32844;-83
2021/10/18 04:40:56;;;;;;;6.97;3.35;;;;;;;10.51;63.32;100602.94;4483133;31;33633;-83
2021/10/18 04:43:25;;;;;;;7.90;3.47;;;;;;;10.61;63.01;100616.72;4481279;31;35215;-83
2021/10/18 04:45:53;;;;;;;7.43;3.65;;;;;;;10.61;62.96;100612.28;4472813;31;32810;-82
2021/10/18 04:48:21;;;;;;;5.10;4.18;;;;;;;10.51;63.31;100617.00;4476356;31;33849;-85
2021/10/18 04:50:49;;;;;;;7.65;4.50;;;;;;;10.51;63.32;100611.72;4476564;31;33748;-84
2021/10/18 04:53:17;;;;;;;6.43;4.15;;;;;;;10.52;63.36;100612.56;4461283;31;32739;-84
2021/10/18 04:55:45;;;;;;;5.53;3.65;;;;;;;10.62;63.03;100613.16;4471920;31;33941;-85
2021/10/18 04:58:12;;;;;;;9.18;3.75;;;;;;;10.71;62.65;100612.88;4460265;32;32904;-85
2021/10/18 05:00:44;;;;;;;7.68;4.32;;;;;;;10.58;62.92;100615.00;4474598;31;32708;-84
2021/10/18 05:03:12;;;;;;;9.23;4.37;;;;;;;10.43;63.27;100615.47;4485595;31;33513;-85
2021/10/18 05:05:40;;;;;;;8.32;3.83;;;;;;;10.62;62.74;100618.44;4483238;31;32837;-85
2021/10/18 05:08:10;;;;;;;14.38;4.10;;;;;;;10.64;62.63;100616.63;4462019;31;34126;-85
2021/10/18 05:10:40;;;;;;;6.62;4.35;;;;;;;10.60;62.72;100621.13;4478224;31;33194;-85
2021/10/18 05:13:10;;;;;;;6.97;4.28;;;;;;;10.58;62.70;100619.44;4477505;31;33407;-85
2021/10/18 05:15:38;;;;;;;9.85;5.20;;;;;;;10.63;62.47;100630.72;4470377;31;32032;-85
2021/10/18 05:18:06;;;;;;;7.30;4.10;;;;;;;10.42;63.00;100627.81;4464438;31;33320;-85
2021/10/18 05:20:34;;;;;;;7.15;3.90;;;;;;;10.52;62.67;100623.13;4486571;31;33326;-85
2021/10/18 05:23:03;;;;;;;10.15;4.05;;;;;;;10.53;62.54;100630.13;4471253;32;33856;-85
2021/10/18 05:25:31;;;;;;;9.88;4.45;;;;;;;10.52;62.54;100644.25;4464035;31;32746;-84
2021/10/18 05:27:59;;;;;;;9.32;4.85;;;;;;;10.46;62.83;100645.31;4485763;31;33454;-85
2021/10/18 05:30:27;;;;;;;7.35;4.75;;;;;;;10.56;62.52;100645.91;4487788;31;34770;-85
2021/10/18 05:32:56;;;;;;;7.45;4.45;;;;;;;10.37;63.31;100648.22;4488163;31;34379;-85
2021/10/18 05:35:25;;;;;;;9.20;4.43;;;;;;;10.40;63.34;100658.69;4470941;31;34203;-84
2021/10/18 05:37:53;;;;;;;11.45;4.95;;;;;;;10.38;63.52;100657.87;4471528;31;33439;-84
2021/10/18 05:40:22;;;;;;;11.68;5.35;;;;;;;10.36;63.68;100653.56;4477952;31;33634;-84
2021/10/18 05:42:51;;;;;;;9.38;5.37;;;;;;;10.56;63.59;100663.53;4484272;31;32907;-84
2021/10/18 05:45:20;;;;;;;10.65;6.20;;;;;;;10.49;63.72;100671.63;4487988;31;33171;-85
2021/10/18 05:47:52;;;;;;;12.68;5.57;;;;;;;10.59;63.74;100669.59;4480042;31;34279;-84
2021/10/18 05:50:22;;;;;;;11.77;5.85;;;;;;;10.74;63.33;100665.59;4487454;31;33683;-84
2021/10/18 05:52:50;;;;;;;9.57;5.43;;;;;;;10.76;63.43;100674.34;4479702;31;32583;-85
2021/10/18 05:55:17;;;;;;;7.82;4.65;;;;;;;10.96;63.12;100676.34;4485360;31;33731;-84
2021/10/18 05:57:52;;;;;;;8.68;4.62;;;;;;;11.06;62.58;100676.94;4474414;31;33819;-85
2021/10/18 06:00:21;;;;;;;8.40;5.75;;;;;;;11.16;62.59;100673.97;4483658;31;32656;-84
2021/10/18 06:02:49;;;;;;;11.90;5.62;;;;;;;11.29;62.31;100685.00;4471708;31;33963;-84
2021/10/18 06:05:18;;;;;;;13.48;5.85;;;;;;;11.34;62.39;100692.78;4464590;31;31755;-84
2021/10/18 06:07:46;;;;;;;14.75;5.25;;;;;;;11.34;62.63;100692.78;4494897;31;33556;-85
2021/10/18 06:10:15;;;;;;;15.30;6.43;;;;;;;10.91;64.34;100691.50;4478579;31;33794;-85
2021/10/18 06:12:43;;;;;;;9.00;5.32;;;;;;;10.89;64.79;100702.13;4474789;31;33456;-85
2021/10/18 06:15:12;;;;;;;17.73;6.45;;;;;;;11.00;64.86;100702.66;4485255;31;33281;-84
2021/10/18 06:17:41;;;;;;;11.32;6.32;;;;;;;11.09;64.79;100706.78;4488088;31;33569;-84
2021/10/18 06:20:10;;;;;;;16.70;6.00;;;;;;;11.20;64.74;100702.03;4490059;31;33160;-85
2021/10/18 06:22:37;;;;;;;12.48;6.87;;;;;;;11.30;64.61;100713.19;4480993;31;32442;-84
2021/10/18 06:25:06;;;;;;;13.60;5.97;;;;;;;11.40;64.20;100709.31;4484993;31;33990;-85
2021/10/18 06:27:34;;;;;;;13.45;5.78;;;;;;;11.54;63.87;100719.47;4467786;31;32826;-82
2021/10/18 06:30:04;;;;;;;11.73;6.30;;;;;;;11.39;64.58;100719.94;4475763;31;33411;-82
2021/10/18 06:32:32;;;;;;;13.25;5.70;;;;;;;11.46;64.87;100718.84;4501492;31;33828;-82
2021/10/18 06:35:00;;;;;;;14.82;6.12;;;;;;;11.59;64.70;100729.88;4496759;31;33455;-83
2021/10/18 06:37:28;;;;;;;12.02;6.25;;;;;;;11.75;64.01;100737.25;4485506;32;33627;-82
2021/10/18 06:39:56;;;;;;;11.32;6.72;;;;;;;12.03;62.60;100739.00;4485567;32;34049;-82
2021/10/18 06:42:23;;;;;;;13.38;6.50;;;;;;;12.15;61.79;100730.59;4472530;32;33369;-82
2021/10/18 06:44:51;;;;;;;8.50;5.53;;;;;;;12.32;60.90;100737.09;4482793;32;34247;-82
2021/10/18 06:47:19;;;;;;;10.25;5.43;;;;;;;12.30;60.43;100738.03;4485596;32;34591;-83
2021/10/18 06:49:47;;;;;;;9.63;5.45;;;;;;;12.18;61.22;100743.75;4472778;32;33844;-82
2021/10/18 06:52:14;;;;;;;13.98;5.93;;;;;;;12.11;62.43;100749.31;4472616;32;33491;-81
2021/10/18 06:54:42;;;;;;;14.43;7.53;;;;;;;12.23;62.40;100746.22;4488046;31;33215;-82
2021/10/18 06:57:10;;;;;;;22.20;10.98;;;;;;;12.65;60.50;100745.59;4502471;31;34001;-82
2021/10/18 06:59:37;;;;;;;14.40;9.95;;;;;;;12.78;59.12;100746.88;4501073;31;34660;-82
2021/10/18 07:02:05;;;;;;;13.23;8.63;;;;;;;12.63;59.14;100742.13;4501120;31;33734;-82
2021/10/18 07:04:35;;;;;;;13.70;8.45;;;;;;;12.75;59.15;100739.88;4488105;31;32678;-82
2021/10/18 07:07:03;;;;;;;14.32;9.30;;;;;;;12.77;59.36;100753.06;4493424;31;34172;-82
2021/10/18 07:09:35;;;;;;;;;;;;;;;12.82;59.11;100749.34;4486757;32;34008;-83
2021/10/18 07:12:03;;;;;;;15.27;9.38;;;;;;;12.79;59.66;100748.59;4485437;32;33941;-82
2021/10/18 07:14:30;;;;;;;19.35;9.25;;;;;;;12.94;59.50;100748.00;4480316;31;32715;-82
2021/10/18 07:16:58;;;;;;;14.98;9.25;;;;;;;13.12;58.76;100746.44;4502161;31;33824;-83
2021/10/18 07:19:26;;;;;;;19.55;10.05;;;;;;;13.14;58.29;100743.72;4498810;31;33983;-82
2021/10/18 07:21:53;;;;;;;17.58;8.23;;;;;;;13.03;58.89;100752.09;4474850;31;32723;-82
2021/10/18 07:24:22;;;;;;;17.15;8.60;;;;;;;13.32;58.10;100748.31;4460620;31;33646;-87
2021/10/18 07:26:50;;;;;;;19.87;8.23;;;;;;;13.41;57.13;100747.97;4474465;31;33540;-84
2021/10/18 07:29:18;;;;;;;19.00;7.78;;;;;;;13.53;55.59;100754.53;4480083;31;34027;-87
2021/10/18 07:31:45;;;;;;;12.90;6.97;;;;;;;13.36;56.29;100759.69;4462049;32;32244;-87
2021/10/18 07:34:16;;;;;;;13.30;7.30;;;;;;;13.27;57.13;100753.81;4472211;32;34132;-87
2021/10/18 07:36:51;;;;;;;15.80;8.38;;;;;;;13.19;57.44;100755.84;4493572;31;34410;-87
2021/10/18 07:39:21;;;;;;;15.25;10.43;;;;;;;13.14;57.81;100759.63;4472643;32;33402;-87
2021/10/18 07:41:50;;;;;;;12.88;7.85;;;;;;;13.40;57.16;100745.37;4484846;32;33343;-87
2021/10/18 07:44:19;;;;;;;18.37;10.77;;;;;;;13.46;55.90;100750.44;4461518;32;32157;-87
2021/10/18 07:46:47;;;;;;;12.43;7.68;;;;;;;13.77;54.99;100755.34;4484486;31;31992;-87
2021/10/18 07:49:14;;;;;;;12.52;6.62;;;;;;;14.04;53.62;100763.94;4468159;32;33632;-87
2021/10/18 07:51:42;;;;;;;16.48;7.37;;;;;;;14.27;53.29;100771.78;4471997;32;33010;-87
2021/10/18 07:54:10;;;;;;;13.60;6.03;;;;;;;14.13;52.81;100773.28;4459242;32;32821;-87
2021/10/18 07:56:38;;;;;;;9.88;5.78;;;;;;;14.43;52.63;100769.31;4472168;32;32954;-87
2021/10/18 07:59:06;;;;;;;13.95;5.62;;;;;;;14.41;51.43;100768.50;4472175;32;33204;-87
2021/10/18 08:01:33;;;;;;;12.88;5.85;;;;;;;14.72;51.12;100770.72;4486465;31;34122;-87
2021/10/18 08:04:01;;;;;;;11.88;5.10;;;;;;;14.71;50.65;100773.41;4462776;32;32724;-87
2021/10/18 08:06:29;;;;;;;13.52;5.22;;;;;;;14.44;50.71;100772.84;4473550;31;34651;-87
2021/10/18 08:08:57;;;;;;;7.53;4.00;;;;;;;14.75;49.58;100761.72;4488754;31;33654;-86
2021/10/18 08:11:24;;;;;;;5.43;3.37;;;;;;;14.78;48.95;100766.91;4474551;31;33530;-87
2021/10/18 08:13:52;;;;;;;5.07;2.78;;;;;;;15.15;48.24;100765.19;4500930;31;32955;-87
2021/10/18 08:16:19;;;;;;;7.68;3.53;;;;;;;15.05;48.07;100765.63;4500569;31;33944;-87
2021/10/18 08:18:48;;;;;;;7.30;3.22;;;;;;;15.08;47.63;100767.25;4483473;32;33627;-87
2021/10/18 08:21:16;;;;;;;4.75;3.45;;;;;;;15.31;47.56;100767.03;4485091;31;33769;-87
2021/10/18 08:23:44;;;;;;;5.72;2.90;;;;;;;15.37;47.31;100771.19;4474454;31;32706;-87
2021/10/18 08:26:12;;;;;;;5.05;3.00;;;;;;;15.26;49.18;100770.88;4487713;31;34005;-87
2021/10/18 08:28:40;;;;;;;9.85;4.93;;;;;;;15.32;47.56;100778.53;4468668;32;32622;-87
2021/10/18 08:31:13;;;;;;;5.75;3.83;;;;;;;15.76;47.26;100773.78;4484799;32;33502;-87
2021/10/18 08:33:41;;;;;;;5.30;3.45;;;;;;;15.70;47.12;100783.84;4484881;32;33387;-89
2021/10/18 08:36:09;;;;;;;7.10;3.80;;;;;;;15.85;45.16;100785.75;4471852;32;32198;-88
2021/10/18 08:41:31;;;;;;;6.68;3.75;;;;;;;15.48;45.65;100781.34;4484481;32;33629;-86
2021/10/18 08:44:15;;;;;;;4.32;3.10;;;;;;;16.07;45.44;100772.22;4459832;31;32631;-86
2021/10/18 08:46:52;;;;;;;10.05;3.50;;;;;;;16.24;45.86;100785.53;4468630;32;32357;-90
2021/10/18 08:49:21;;;;;;;9.15;3.47;;;;;;;16.21;44.83;100779.50;4459902;32;33289;-91
2021/10/18 08:51:49;;;;;;;4.87;3.42;;;;;;;16.15;44.30;100786.00;4458822;32;32411;-90
2021/10/18 08:54:17;;;;;;;7.95;3.50;;;;;;;16.00;46.15;100774.34;4459409;32;31666;-90
2021/10/18 08:56:54;;;;;;;5.45;3.40;;;;;;;16.09;44.85;100781.88;4465764;31;32506;-84
2021/10/18 08:59:26;;;;;;;5.10;3.83;;;;;;;15.71;44.75;100774.91;4471023;31;33032;-85
2021/10/18 09:01:57;;;;;;;5.28;3.70;;;;;;;15.87;44.17;100786.53;4489368;31;33498;-84
2021/10/18 09:04:27;;;;;;;8.05;3.90;;;;;;;16.24;44.19;100784.69;4486947;31;33402;-84
2021/10/18 09:07:00;;;;;;;5.37;4.03;;;;;;;16.14;44.02;100789.59;4487313;31;33994;-85
2021/10/18 09:09:43;;;;;;;7.65;3.83;;;;;;;16.54;43.61;100785.75;4474990;31;34873;-84
2021/10/18 09:12:23;;;;;;;7.43;3.28;;;;;;;16.76;43.63;100782.84;4471192;32;33812;-85
2021/10/18 09:14:50;;;;;;;7.43;3.97;;;;;;;16.31;43.43;100783.41;4471220;32;34027;-85
2021/10/18 09:17:32;;;;;;;6.78;3.92;;;;;;;16.23;43.52;100786.47;4475461;31;33842;-85
2021/10/18 09:20:22;;;;;;;6.82;3.90;;;;;;;16.61;43.11;100784.47;4481782;31;33902;-84
2021/10/18 09:22:52;;;;;;;6.62;3.95;;;;;;;16.93;42.88;100784.56;4486930;31;34219;-85
2021/10/18 09:25:33;;;;;;;9.40;3.60;;;;;;;16.73;43.12;100782.13;4476414;31;32350;-85
2021/10/18 09:28:22;;;;;;;8.43;4.03;;;;;;;16.48;42.82;100794.06;4479490;32;32527;-85
2021/10/18 09:30:50;;;;;;;6.20;3.90;;;;;;;16.84;43.14;100793.06;4493212;31;33254;-85
2021/10/18 09:33:30;;;;;;;9.27;4.22;;;;;;;16.81;43.03;100790.59;4479464;31;33062;-85
2021/10/18 09:35:59;;;;;;;5.95;3.65;;;;;;;16.99;42.60;100794.03;4498332;31;33749;-85
2021/10/18 09:38:27;;;;;;;5.07;3.00;;;;;;;16.95;42.18;100792.50;4471750;31;33595;-85
2021/10/18 09:40:57;;;;;;;7.60;2.87;;;;;;;16.77;42.48;100781.03;4460051;32;33325;-85
2021/10/18 09:46:50;;;;;;;5.57;3.50;;;;;;;16.67;40.22;100788.63;4492889;31;33362;-85
2021/10/18 10:51:48;;;;;;;6.40;4.07;;;;;;;18.43;36.49;100754.56;4474739;31;33927;-84
2021/10/18 10:54:39;;;;;;;8.23;4.00;;;;;;;18.52;36.47;100758.50;4489218;31;33811;-84
2021/10/18 10:57:13;;;;;;;5.40;3.42;;;;;;;17.98;39.26;100752.84;4487649;31;34253;-85
2021/10/18 10:59:53;;;;;;;7.95;3.92;;;;;;;18.05;37.14;100760.41;4484899;32;33617;-84
2021/10/18 11:02:28;;;;;;;4.78;3.50;;;;;;;18.30;36.18;100754.44;4472748;31;32727;-85
2021/10/18 11:04:56;;;;;;;8.00;3.42;;;;;;;17.91;37.22;100758.56;4465394;31;32066;-84
2021/10/18 11:07:33;;;;;;;7.93;4.47;;;;;;;17.95;36.02;100755.72;4473815;31;33592;-84
2021/10/18 11:10:05;;;;;;;6.68;4.47;;;;;;;17.71;37.21;100758.84;4489257;31;33927;-84
2021/10/18 11:12:40;;;;;;;7.78;4.22;;;;;;;17.19;38.98;100759.16;4483978;31;33660;-84
2021/10/18 11:15:13;;;;;;;7.32;4.65;;;;;;;17.40;39.49;100760.59;4472419;32;33377;-85
2021/10/18 11:17:46;;;;;;;7.12;4.32;;;;;;;17.52;38.79;100753.69;4481422;31;32825;-85
2021/10/18 11:20:19;;;;;;;11.00;4.93;;;;;;;17.64;37.22;100747.62;4492385;31;34056;-84
2021/10/18 11:22:56;;;;;;;9.55;5.55;;;;;;;17.43;39.62;100743.53;4490055;31;33198;-85
2021/10/18 11:25:29;;;;;;;9.57;4.87;;;;;;;17.67;38.61;100750.13;4491246;31;33001;-84
2021/10/18 11:28:03;;;;;;;7.53;4.45;;;;;;;17.67;38.15;100749.28;4473864;32;32399;-84
2021/10/18 11:30:32;;;;;;;9.95;5.47;;;;;;;17.11;42.10;100740.03;4493278;31;33810;-84
2021/10/18 11:33:50;;;;;;;10.05;5.50;;;;;;;17.30;38.65;100750.53;4487626;31;33446;-84
2021/10/18 11:36:18;;;;;;;9.13;5.75;;;;;;;17.61;37.83;100745.16;4492809;31;33079;-86
2021/10/18 11:38:45;;;;;;;8.25;6.18;;;;;;;17.57;38.75;100737.41;4484295;31;32822;-86
2021/10/18 11:41:13;;;;;;;10.20;6.82;;;;;;;17.21;42.31;100745.69;4477784;31;34141;-86
2021/10/18 11:43:47;;;;;;;9.60;6.60;;;;;;;17.76;38.95;100742.59;4466579;31;33739;-86
2021/10/18 11:46:15;;;;;;;10.20;5.75;;;;;;;18.06;38.96;100740.75;4481990;32;30990;-86
2021/10/18 11:48:42;;;;;;;10.85;6.15;;;;;;;17.88;38.67;100742.69;4462526;32;32633;-86
2021/10/18 11:51:23;;;;;;;7.15;5.57;;;;;;;17.66;42.25;100742.22;4484462;31;34472;-86
2021/10/18 11:53:53;;;;;;;8.70;5.68;;;;;;;18.40;37.24;100734.22;4477680;31;32605;-86
2021/10/18 11:56:22;;;;;;;9.50;5.60;;;;;;;18.17;39.55;100732.94;4480601;31;33256;-86
2021/10/18 11:58:49;;;;;;;12.25;6.55;;;;;;;18.01;39.15;100736.62;4482877;31;34079;-87
2021/10/18 12:01:18;;;;;;;7.22;5.40;;;;;;;18.03;39.00;100742.75;4480218;31;33245;-87
2021/10/18 12:03:46;;;;;;;12.27;6.20;;;;;;;18.30;37.67;100737.56;4478401;31;33768;-87
2021/10/18 12:06:14;;;;;;;8.25;4.68;;;;;;;18.52;37.20;100743.31;4476265;31;33246;-87
2021/10/18 12:08:45;;;;;;;12.37;5.53;;;;;;;18.14;37.23;100737.63;4472611;31;34249;-86
2021/10/18 12:11:13;;;;;;;;;;;;;;;18.07;37.47;100742.47;4478138;31;32897;-86
2021/10/18 12:13:42;;;;;;;10.80;6.03;;;;;;;17.89;38.40;100739.06;4475623;31;34100;-86
2021/10/18 12:16:11;;;;;;;6.53;4.97;;;;;;;17.44;38.98;100737.25;4489094;31;33692;-86
2021/10/18 12:18:42;;;;;;;8.27;5.28;;;;;;;17.70;39.06;100732.19;4489547;31;33812;-86
2021/10/18 12:21:36;;;;;;;10.23;5.20;;;;;;;17.74;38.25;100728.44;4480978;31;33741;-86
2021/10/18 12:24:06;;;;;;;7.62;4.82;;;;;;;17.72;38.79;100727.66;4474835;31;33589;-85
2021/10/18 12:26:52;;;;;;;10.25;5.15;;;;;;;17.60;39.02;100727.38;4475013;31;32117;-85
2021/10/18 12:29:25;;;;;;;9.15;4.70;;;;;;;17.11;39.35;100735.53;4481743;31;34186;-84
2021/10/18 12:31:54;;;;;;;8.43;4.68;;;;;;;17.11;40.88;100740.88;4484657;31;34725;-84
2021/10/18 12:34:22;;;;;;;5.85;4.32;;;;;;;16.93;39.58;100735.69;4476075;31;33374;-84
2021/10/18 12:36:54;;;;;;;13.10;4.93;;;;;;;16.75;39.37;100749.09;4488477;31;33333;-84
2021/10/18 12:39:37;;;;;;;10.77;5.70;;;;;;;16.75;40.10;100737.56;4487078;31;33749;-84
2021/10/18 12:42:07;;;;;;;7.62;5.10;;;;;;;16.59;40.75;100741.03;4478787;31;33145;-84
2021/10/18 12:44:38;;;;;;;10.73;5.78;;;;;;;16.83;41.19;100741.53;4491432;31;34530;-83